sensor_id;sensor_type;location;lat;lon;timestamp;temperature;humidity
57552;DHT22;43379;48.160;14.036;2023-11-21T00:02:03;8.20;99.90
57552;DHT22;43379;48.160;14.036;2023-11-21T00:04:30;8.30;99.90
57552;DHT22;43379;48.160;14.036;2023-11-21T00:06:55;8.30;99.90
57552;DHT22;43379;48.160;14.036;2023-11-21T00:09:21;8.40;99.90
57552;DHT22;43379;48.160;14.036;2023-11-21T00:11:47;8.30;99.90
57552;DHT22;43379;48.160;14.036;2023-11-21T00:14:13;8.40;99.90
57552;DHT22;43379;48.160;14.036;2023-11-21T00:16:41;8.40;99.90
57552;DHT22;43379;48.160;14.036;2023-11-21T00:19:06;8.40;99.90
57552;DHT22;43379;48.160;14.036;2023-11-21T00:21:32;8.40;99.90
57552;DHT22;43379;48.160;14.036;2023-11-21T00:23:58;8.40;99.90
57552;DHT22;43379;48.160;14.036;2023-11-21T00:26:23;8.40;99.90
57552;DHT22;43379;48.160;14.036;2023-11-21T00:28:50;8.40;99.90
57552;DHT22;43379;48.160;14.036;2023-11-21T00:31:16;8.40;99.90
57552;DHT22;43379;48.160;14.036;2023-11-21T00:33:41;8.40;99.90
57552;DHT22;43379;48.160;14.036;2023-11-21T00:36:09;8.40;99.90
57552;DHT22;43379;48.160;14.036;2023-11-21T00:38:35;8.40;99.90
57552;DHT22;43379;48.160;14.036;2023-11-21T00:41:01;8.40;99.90
57552;DHT22;43379;48.160;14.036;2023-11-21T00:43:27;8.20;99.90
57552;DHT22;43379;48.160;14.036;2023-11-21T00:45:52;8.20;99.90
57552;DHT22;43379;48.160;14.036;2023-11-21T00:48:18;8.10;99.90
57552;DHT22;43379;48.160;14.036;2023-11-21T00:50:44;8.10;99.90
57552;DHT22;43379;48.160;14.036;2023-11-21T00:53:09;8.10;99.90
57552;DHT22;43379;48.160;14.036;2023-11-21T00:55:36;8.10;99.90
57552;DHT22;43379;48.160;14.036;2023-11-21T00:58:02;8.10;99.90
57552;DHT22;43379;48.160;14.036;2023-11-21T01:00:29;8.10;99.90
57552;DHT22;43379;48.160;14.036;2023-11-21T01:02:55;8.10;99.90
57552;DHT22;43379;48.160;14.036;2023-11-21T01:05:21;8.00;99.90
57552;DHT22;43379;48.160;14.036;2023-11-21T01:07:47;7.90;99.90
57552;DHT22;43379;48.160;14.036;2023-11-21T01:10:12;7.90;99.90
57552;DHT22;43379;48.160;14.036;2023-11-21T01:12:38;7.90;99.90
57552;DHT22;43379;48.160;14.036;2023-11-21T01:15:05;7.90;99.90
57552;DHT22;43379;48.160;14.036;2023-11-21T01:17:34;7.90;99.90
57552;DHT22;43379;48.160;14.036;2023-11-21T01:20:02;7.80;99.90
57552;DHT22;43379;48.160;14.036;2023-11-21T01:22:28;7.80;99.90
57552;DHT22;43379;48.160;14.036;2023-11-21T01:24:54;7.80;99.90
57552;DHT22;43379;48.160;14.036;2023-11-21T01:27:20;7.80;99.90
57552;DHT22;43379;48.160;14.036;2023-11-21T01:29:46;7.70;99.90
57552;DHT22;43379;48.160;14.036;2023-11-21T01:32:11;7.70;99.90
57552;DHT22;43379;48.160;14.036;2023-11-21T01:34:37;7.70;99.90
57552;DHT22;43379;48.160;14.036;2023-11-21T01:37:03;7.70;99.90
57552;DHT22;43379;48.160;14.036;2023-11-21T01:39:31;7.70;99.90
57552;DHT22;43379;48.160;14.036;2023-11-21T01:41:57;7.70;99.90
57552;DHT22;43379;48.160;14.036;2023-11-21T01:44:26;7.60;99.90
57552;DHT22;43379;48.160;14.036;2023-11-21T01:46:52;7.60;99.90
57552;DHT22;43379;48.160;14.036;2023-11-21T01:49:19;7.50;99.90
57552;DHT22;43379;48.160;14.036;2023-11-21T01:51:48;7.50;99.90
57552;DHT22;43379;48.160;14.036;2023-11-21T01:54:17;7.40;99.90
57552;DHT22;43379;48.160;14.036;2023-11-21T01:56:46;7.40;99.90
57552;DHT22;43379;48.160;14.036;2023-11-21T01:59:18;7.30;99.90
57552;DHT22;43379;48.160;14.036;2023-11-21T02:01:45;7.30;99.90
57552;DHT22;43379;48.160;14.036;2023-11-21T02:04:12;7.20;99.90
57552;DHT22;43379;48.160;14.036;2023-11-21T02:06:38;7.20;99.90
57552;DHT22;43379;48.160;14.036;2023-11-21T02:09:04;7.20;99.90
57552;DHT22;43379;48.160;14.036;2023-11-21T02:11:30;7.20;99.90
57552;DHT22;43379;48.160;14.036;2023-11-21T02:13:59;7.20;99.90
57552;DHT22;43379;48.160;14.036;2023-11-21T02:16:24;7.30;99.90
57552;DHT22;43379;48.160;14.036;2023-11-21T02:18:51;7.40;99.90
57552;DHT22;43379;48.160;14.036;2023-11-21T02:21:17;7.30;99.90
57552;DHT22;43379;48.160;14.036;2023-11-21T02:23:44;7.40;99.90
57552;DHT22;43379;48.160;14.036;2023-11-21T02:26:12;7.40;99.90
57552;DHT22;43379;48.160;14.036;2023-11-21T02:28:39;7.40;99.90
57552;DHT22;43379;48.160;14.036;2023-11-21T02:31:05;7.30;99.90
57552;DHT22;43379;48.160;14.036;2023-11-21T02:33:31;7.40;99.90
57552;DHT22;43379;48.160;14.036;2023-11-21T02:36:02;7.40;99.90
57552;DHT22;43379;48.160;14.036;2023-11-21T02:38:28;7.40;99.90
57552;DHT22;43379;48.160;14.036;2023-11-21T02:40:54;7.40;99.90
57552;DHT22;43379;48.160;14.036;2023-11-21T02:43:20;7.50;99.90
57552;DHT22;43379;48.160;14.036;2023-11-21T02:45:45;7.50;99.90
57552;DHT22;43379;48.160;14.036;2023-11-21T02:48:11;7.50;99.90
57552;DHT22;43379;48.160;14.036;2023-11-21T02:50:36;7.50;99.90
57552;DHT22;43379;48.160;14.036;2023-11-21T02:53:03;7.50;99.90
57552;DHT22;43379;48.160;14.036;2023-11-21T02:55:31;7.50;99.90
57552;DHT22;43379;48.160;14.036;2023-11-21T02:58:00;7.60;99.90
57552;DHT22;43379;48.160;14.036;2023-11-21T03:00:26;7.60;99.90
57552;DHT22;43379;48.160;14.036;2023-11-21T03:02:54;7.70;99.90
57552;DHT22;43379;48.160;14.036;2023-11-21T03:05:20;7.70;99.90
57552;DHT22;43379;48.160;14.036;2023-11-21T03:07:47;7.70;99.90
57552;DHT22;43379;48.160;14.036;2023-11-21T03:10:12;7.70;99.90
57552;DHT22;43379;48.160;14.036;2023-11-21T03:12:39;7.70;99.90
57552;DHT22;43379;48.160;14.036;2023-11-21T03:15:06;7.70;99.90
57552;DHT22;43379;48.160;14.036;2023-11-21T03:17:32;7.70;99.90
57552;DHT22;43379;48.160;14.036;2023-11-21T03:19:59;7.70;99.90
57552;DHT22;43379;48.160;14.036;2023-11-21T03:22:25;7.80;99.90
57552;DHT22;43379;48.160;14.036;2023-11-21T03:24:51;7.90;99.90
57552;DHT22;43379;48.160;14.036;2023-11-21T03:27:18;7.90;99.90
57552;DHT22;43379;48.160;14.036;2023-11-21T03:29:43;8.00;99.90
57552;DHT22;43379;48.160;14.036;2023-11-21T03:32:10;8.10;99.90
57552;DHT22;43379;48.160;14.036;2023-11-21T03:34:56;8.10;99.90
57552;DHT22;43379;48.160;14.036;2023-11-21T03:37:22;8.10;99.90
57552;DHT22;43379;48.160;14.036;2023-11-21T03:39:47;8.10;99.90
57552;DHT22;43379;48.160;14.036;2023-11-21T03:42:13;8.10;99.90
57552;DHT22;43379;48.160;14.036;2023-11-21T03:44:39;8.10;99.90
57552;DHT22;43379;48.160;14.036;2023-11-21T03:47:05;8.10;99.90
57552;DHT22;43379;48.160;14.036;2023-11-21T03:49:31;8.10;99.90
57552;DHT22;43379;48.160;14.036;2023-11-21T03:51:56;8.10;99.90
57552;DHT22;43379;48.160;14.036;2023-11-21T03:54:22;8.20;99.90
57552;DHT22;43379;48.160;14.036;2023-11-21T03:56:48;8.20;99.90
57552;DHT22;43379;48.160;14.036;2023-11-21T03:59:13;8.20;99.90
57552;DHT22;43379;48.160;14.036;2023-11-21T04:01:39;8.30;99.90
57552;DHT22;43379;48.160;14.036;2023-11-21T04:04:04;8.20;99.90
57552;DHT22;43379;48.160;14.036;2023-11-21T04:06:30;8.30;99.90
57552;DHT22;43379;48.160;14.036;2023-11-21T04:08:58;8.30;99.90
57552;DHT22;43379;48.160;14.036;2023-11-21T04:11:24;8.20;99.90
57552;DHT22;43379;48.160;14.036;2023-11-21T04:13:49;8.30;99.90
57552;DHT22;43379;48.160;14.036;2023-11-21T04:16:15;8.20;99.90
57552;DHT22;43379;48.160;14.036;2023-11-21T04:18:41;8.20;99.90
57552;DHT22;43379;48.160;14.036;2023-11-21T04:21:07;8.20;99.90
57552;DHT22;43379;48.160;14.036;2023-11-21T04:23:33;8.20;99.90
57552;DHT22;43379;48.160;14.036;2023-11-21T04:26:00;8.20;99.90
57552;DHT22;43379;48.160;14.036;2023-11-21T04:28:28;8.20;99.90
57552;DHT22;43379;48.160;14.036;2023-11-21T04:30:53;8.20;99.90
57552;DHT22;43379;48.160;14.036;2023-11-21T04:33:19;8.10;99.90
57552;DHT22;43379;48.160;14.036;2023-11-21T04:35:45;8.20;99.90
57552;DHT22;43379;48.160;14.036;2023-11-21T04:38:11;8.20;99.90
57552;DHT22;43379;48.160;14.036;2023-11-21T04:40:37;8.10;99.90
57552;DHT22;43379;48.160;14.036;2023-11-21T04:43:02;8.00;99.90
57552;DHT22;43379;48.160;14.036;2023-11-21T04:45:29;8.00;99.90
57552;DHT22;43379;48.160;14.036;2023-11-21T04:47:55;8.00;99.90
57552;DHT22;43379;48.160;14.036;2023-11-21T04:50:21;8.00;99.90
57552;DHT22;43379;48.160;14.036;2023-11-21T04:52:47;8.10;99.90
57552;DHT22;43379;48.160;14.036;2023-11-21T04:55:13;8.10;99.90
57552;DHT22;43379;48.160;14.036;2023-11-21T04:57:39;8.10;99.90
57552;DHT22;43379;48.160;14.036;2023-11-21T05:00:08;8.10;99.90
57552;DHT22;43379;48.160;14.036;2023-11-21T05:02:34;8.20;99.90
57552;DHT22;43379;48.160;14.036;2023-11-21T05:05:00;8.10;99.90
57552;DHT22;43379;48.160;14.036;2023-11-21T05:07:26;8.10;99.90
57552;DHT22;43379;48.160;14.036;2023-11-21T05:09:57;8.00;99.90
57552;DHT22;43379;48.160;14.036;2023-11-21T05:12:24;8.10;99.90
57552;DHT22;43379;48.160;14.036;2023-11-21T05:14:50;8.10;99.90
57552;DHT22;43379;48.160;14.036;2023-11-21T05:17:16;8.10;99.90
57552;DHT22;43379;48.160;14.036;2023-11-21T05:19:42;8.20;99.90
57552;DHT22;43379;48.160;14.036;2023-11-21T05:22:10;8.20;99.90
57552;DHT22;43379;48.160;14.036;2023-11-21T05:24:37;8.30;99.90
57552;DHT22;43379;48.160;14.036;2023-11-21T05:27:04;8.30;99.90
57552;DHT22;43379;48.160;14.036;2023-11-21T05:29:30;8.20;99.90
57552;DHT22;43379;48.160;14.036;2023-11-21T05:31:55;8.20;99.90
57552;DHT22;43379;48.160;14.036;2023-11-21T05:34:21;8.30;99.90
57552;DHT22;43379;48.160;14.036;2023-11-21T05:36:50;8.30;99.90
57552;DHT22;43379;48.160;14.036;2023-11-21T05:39:15;8.20;99.90
57552;DHT22;43379;48.160;14.036;2023-11-21T05:41:43;8.20;99.90
57552;DHT22;43379;48.160;14.036;2023-11-21T05:44:08;8.20;99.90
57552;DHT22;43379;48.160;14.036;2023-11-21T05:46:34;8.20;99.90
57552;DHT22;43379;48.160;14.036;2023-11-21T05:49:00;8.20;99.90
57552;DHT22;43379;48.160;14.036;2023-11-21T05:51:26;8.30;99.90
57552;DHT22;43379;48.160;14.036;2023-11-21T05:53:51;8.30;99.90
57552;DHT22;43379;48.160;14.036;2023-11-21T05:56:17;8.30;99.90
57552;DHT22;43379;48.160;14.036;2023-11-21T05:58:43;8.40;99.90
57552;DHT22;43379;48.160;14.036;2023-11-21T06:01:09;8.40;99.90
57552;DHT22;43379;48.160;14.036;2023-11-21T06:03:38;8.50;99.90
57552;DHT22;43379;48.160;14.036;2023-11-21T06:06:04;8.60;99.90
57552;DHT22;43379;48.160;14.036;2023-11-21T06:08:30;8.60;99.90
57552;DHT22;43379;48.160;14.036;2023-11-21T06:10:55;8.70;99.90
57552;DHT22;43379;48.160;14.036;2023-11-21T06:13:21;8.70;99.90
57552;DHT22;43379;48.160;14.036;2023-11-21T06:15:50;8.80;99.90
57552;DHT22;43379;48.160;14.036;2023-11-21T06:18:16;8.70;99.90
57552;DHT22;43379;48.160;14.036;2023-11-21T06:20:47;8.80;99.90
57552;DHT22;43379;48.160;14.036;2023-11-21T06:23:13;8.80;99.90
57552;DHT22;43379;48.160;14.036;2023-11-21T06:25:39;8.80;99.90
57552;DHT22;43379;48.160;14.036;2023-11-21T06:28:05;8.70;99.90
57552;DHT22;43379;48.160;14.036;2023-11-21T06:30:31;8.70;99.90
57552;DHT22;43379;48.160;14.036;2023-11-21T06:32:57;8.70;99.90
57552;DHT22;43379;48.160;14.036;2023-11-21T06:35:23;8.70;99.90
57552;DHT22;43379;48.160;14.036;2023-11-21T06:37:48;8.70;99.90
57552;DHT22;43379;48.160;14.036;2023-11-21T06:40:14;8.70;99.90
57552;DHT22;43379;48.160;14.036;2023-11-21T06:42:40;8.80;99.90
57552;DHT22;43379;48.160;14.036;2023-11-21T06:45:07;8.90;99.90
57552;DHT22;43379;48.160;14.036;2023-11-21T06:47:33;8.90;99.90
57552;DHT22;43379;48.160;14.036;2023-11-21T06:49:59;8.90;99.90
57552;DHT22;43379;48.160;14.036;2023-11-21T06:52:25;8.90;99.90
57552;DHT22;43379;48.160;14.036;2023-11-21T06:54:51;8.90;99.90
57552;DHT22;43379;48.160;14.036;2023-11-21T06:57:17;8.90;99.90
57552;DHT22;43379;48.160;14.036;2023-11-21T06:59:43;8.90;99.90
57552;DHT22;43379;48.160;14.036;2023-11-21T07:02:08;9.00;99.90
57552;DHT22;43379;48.160;14.036;2023-11-21T07:04:35;9.00;99.90
57552;DHT22;43379;48.160;14.036;2023-11-21T07:07:04;9.00;99.90
57552;DHT22;43379;48.160;14.036;2023-11-21T07:09:32;9.00;99.90
57552;DHT22;43379;48.160;14.036;2023-11-21T07:11:57;9.10;99.90
57552;DHT22;43379;48.160;14.036;2023-11-21T07:14:23;9.10;99.90
57552;DHT22;43379;48.160;14.036;2023-11-21T07:16:49;9.10;99.90
57552;DHT22;43379;48.160;14.036;2023-11-21T07:19:14;9.10;99.90
57552;DHT22;43379;48.160;14.036;2023-11-21T07:21:40;9.20;99.90
57552;DHT22;43379;48.160;14.036;2023-11-21T07:24:07;9.20;99.90
57552;DHT22;43379;48.160;14.036;2023-11-21T07:26:34;9.30;99.90
57552;DHT22;43379;48.160;14.036;2023-11-21T07:29:00;9.30;99.90
57552;DHT22;43379;48.160;14.036;2023-11-21T07:31:26;9.30;99.90
57552;DHT22;43379;48.160;14.036;2023-11-21T07:33:52;9.30;99.90
57552;DHT22;43379;48.160;14.036;2023-11-21T07:36:19;9.30;99.90
57552;DHT22;43379;48.160;14.036;2023-11-21T07:38:46;9.30;99.90
57552;DHT22;43379;48.160;14.036;2023-11-21T07:41:12;9.30;99.90
57552;DHT22;43379;48.160;14.036;2023-11-21T07:43:44;9.30;99.90
57552;DHT22;43379;48.160;14.036;2023-11-21T07:46:11;9.40;99.90
57552;DHT22;43379;48.160;14.036;2023-11-21T07:48:38;9.40;99.90
57552;DHT22;43379;48.160;14.036;2023-11-21T07:51:04;9.40;99.90
57552;DHT22;43379;48.160;14.036;2023-11-21T07:53:30;9.40;99.90
57552;DHT22;43379;48.160;14.036;2023-11-21T07:56:06;9.50;99.90
57552;DHT22;43379;48.160;14.036;2023-11-21T07:58:33;9.60;99.90
57552;DHT22;43379;48.160;14.036;2023-11-21T08:01:00;9.60;99.90
57552;DHT22;43379;48.160;14.036;2023-11-21T08:03:26;9.60;99.90
57552;DHT22;43379;48.160;14.036;2023-11-21T08:05:52;9.60;99.90
57552;DHT22;43379;48.160;14.036;2023-11-21T08:08:18;9.70;99.90
57552;DHT22;43379;48.160;14.036;2023-11-21T08:10:44;9.70;99.90
57552;DHT22;43379;48.160;14.036;2023-11-21T08:13:24;9.70;99.90
57552;DHT22;43379;48.160;14.036;2023-11-21T08:15:53;9.70;99.90
57552;DHT22;43379;48.160;14.036;2023-11-21T08:18:19;9.80;99.90
57552;DHT22;43379;48.160;14.036;2023-11-21T08:20:44;9.90;99.90
57552;DHT22;43379;48.160;14.036;2023-11-21T08:23:16;10.00;99.90
57552;DHT22;43379;48.160;14.036;2023-11-21T08:25:44;10.10;99.90
57552;DHT22;43379;48.160;14.036;2023-11-21T08:28:11;10.30;99.90
57552;DHT22;43379;48.160;14.036;2023-11-21T08:30:37;10.40;99.90
57552;DHT22;43379;48.160;14.036;2023-11-21T08:33:03;10.50;99.90
57552;DHT22;43379;48.160;14.036;2023-11-21T08:35:29;10.60;99.90
57552;DHT22;43379;48.160;14.036;2023-11-21T08:37:55;10.70;99.90
57552;DHT22;43379;48.160;14.036;2023-11-21T08:40:21;10.70;99.90
57552;DHT22;43379;48.160;14.036;2023-11-21T08:42:47;10.70;99.90
57552;DHT22;43379;48.160;14.036;2023-11-21T08:45:14;10.70;99.90
57552;DHT22;43379;48.160;14.036;2023-11-21T08:47:40;10.60;99.90
57552;DHT22;43379;48.160;14.036;2023-11-21T08:50:06;10.60;99.90
57552;DHT22;43379;48.160;14.036;2023-11-21T08:52:34;10.70;99.90
57552;DHT22;43379;48.160;14.036;2023-11-21T08:55:00;10.80;99.90
57552;DHT22;43379;48.160;14.036;2023-11-21T08:57:35;11.00;99.90
57552;DHT22;43379;48.160;14.036;2023-11-21T09:00:03;11.30;99.90
57552;DHT22;43379;48.160;14.036;2023-11-21T09:02:32;11.60;99.90
57552;DHT22;43379;48.160;14.036;2023-11-21T09:04:59;11.70;99.90
57552;DHT22;43379;48.160;14.036;2023-11-21T09:07:28;11.90;99.90
57552;DHT22;43379;48.160;14.036;2023-11-21T09:09:54;12.00;99.90
57552;DHT22;43379;48.160;14.036;2023-11-21T09:12:20;11.90;99.90
57552;DHT22;43379;48.160;14.036;2023-11-21T09:14:47;11.90;99.90
57552;DHT22;43379;48.160;14.036;2023-11-21T09:17:13;11.90;99.90
57552;DHT22;43379;48.160;14.036;2023-11-21T09:19:40;11.80;99.90
57552;DHT22;43379;48.160;14.036;2023-11-21T09:22:06;11.80;99.90
57552;DHT22;43379;48.160;14.036;2023-11-21T09:24:32;11.70;99.90
57552;DHT22;43379;48.160;14.036;2023-11-21T09:26:59;11.60;99.90
57552;DHT22;43379;48.160;14.036;2023-11-21T09:29:26;11.60;99.90
57552;DHT22;43379;48.160;14.036;2023-11-21T09:31:52;11.50;99.90
57552;DHT22;43379;48.160;14.036;2023-11-21T09:34:17;11.40;99.90
57552;DHT22;43379;48.160;14.036;2023-11-21T09:36:47;11.40;99.90
57552;DHT22;43379;48.160;14.036;2023-11-21T09:39:13;11.40;99.90
57552;DHT22;43379;48.160;14.036;2023-11-21T09:42:25;11.30;99.90
57552;DHT22;43379;48.160;14.036;2023-11-21T09:47:17;11.40;99.90
57552;DHT22;43379;48.160;14.036;2023-11-21T09:49:47;11.30;99.90
57552;DHT22;43379;48.160;14.036;2023-11-21T09:52:27;11.20;99.90
57552;DHT22;43379;48.160;14.036;2023-11-21T09:54:54;11.30;99.90
57552;DHT22;43379;48.160;14.036;2023-11-21T09:57:23;11.20;99.90
57552;DHT22;43379;48.160;14.036;2023-11-21T09:59:52;11.30;99.90
57552;DHT22;43379;48.160;14.036;2023-11-21T10:02:23;11.30;99.90
57552;DHT22;43379;48.160;14.036;2023-11-21T10:04:51;11.30;99.90
57552;DHT22;43379;48.160;14.036;2023-11-21T10:07:19;11.20;99.90
57552;DHT22;43379;48.160;14.036;2023-11-21T10:09:47;11.30;99.90
57552;DHT22;43379;48.160;14.036;2023-11-21T10:12:15;11.30;99.90
57552;DHT22;43379;48.160;14.036;2023-11-21T10:14:41;11.20;99.90
57552;DHT22;43379;48.160;14.036;2023-11-21T10:17:10;11.10;99.90
57552;DHT22;43379;48.160;14.036;2023-11-21T10:19:39;11.10;99.90
57552;DHT22;43379;48.160;14.036;2023-11-21T10:22:05;11.00;99.90
57552;DHT22;43379;48.160;14.036;2023-11-21T10:24:32;11.00;99.90
57552;DHT22;43379;48.160;14.036;2023-11-21T10:26:58;10.90;99.90
57552;DHT22;43379;48.160;14.036;2023-11-21T10:29:29;11.00;99.90
57552;DHT22;43379;48.160;14.036;2023-11-21T10:31:55;11.00;99.90
57552;DHT22;43379;48.160;14.036;2023-11-21T10:34:24;11.00;99.90
57552;DHT22;43379;48.160;14.036;2023-11-21T10:36:50;10.80;99.90
57552;DHT22;43379;48.160;14.036;2023-11-21T10:39:19;10.90;99.90
57552;DHT22;43379;48.160;14.036;2023-11-21T10:41:49;10.90;99.90
57552;DHT22;43379;48.160;14.036;2023-11-21T10:44:17;10.80;99.90
57552;DHT22;43379;48.160;14.036;2023-11-21T10:46:53;10.80;99.90
57552;DHT22;43379;48.160;14.036;2023-11-21T10:49:25;10.80;99.90
57552;DHT22;43379;48.160;14.036;2023-11-21T10:51:53;10.80;99.90
57552;DHT22;43379;48.160;14.036;2023-11-21T10:54:23;10.80;99.90
57552;DHT22;43379;48.160;14.036;2023-11-21T10:56:50;10.70;99.90
57552;DHT22;43379;48.160;14.036;2023-11-21T10:59:18;10.70;99.90
57552;DHT22;43379;48.160;14.036;2023-11-21T11:01:45;10.70;99.90
57552;DHT22;43379;48.160;14.036;2023-11-21T11:04:14;10.70;99.90
57552;DHT22;43379;48.160;14.036;2023-11-21T11:06:50;10.60;99.90
57552;DHT22;43379;48.160;14.036;2023-11-21T11:09:17;10.60;99.90
57552;DHT22;43379;48.160;14.036;2023-11-21T11:11:43;10.60;99.90
57552;DHT22;43379;48.160;14.036;2023-11-21T11:14:13;10.60;99.90
57552;DHT22;43379;48.160;14.036;2023-11-21T11:16:40;10.60;99.90
57552;DHT22;43379;48.160;14.036;2023-11-21T11:19:11;10.50;99.90
57552;DHT22;43379;48.160;14.036;2023-11-21T11:30:30;10.40;99.90
57552;DHT22;43379;48.160;14.036;2023-11-21T11:33:21;10.40;99.90
57552;DHT22;43379;48.160;14.036;2023-11-21T11:36:02;10.50;99.90
57552;DHT22;43379;48.160;14.036;2023-11-21T11:38:32;10.40;99.90
57552;DHT22;43379;48.160;14.036;2023-11-21T11:41:02;10.40;99.90
57552;DHT22;43379;48.160;14.036;2023-11-21T11:43:29;10.40;99.90
57552;DHT22;43379;48.160;14.036;2023-11-21T11:45:58;10.40;99.90
57552;DHT22;43379;48.160;14.036;2023-11-21T11:48:25;10.50;99.90
57552;DHT22;43379;48.160;14.036;2023-11-21T11:51:05;10.50;99.90
57552;DHT22;43379;48.160;14.036;2023-11-21T11:53:44;10.50;99.90
57552;DHT22;43379;48.160;14.036;2023-11-21T11:56:28;10.50;99.90
57552;DHT22;43379;48.160;14.036;2023-11-21T11:59:00;10.50;99.90
57552;DHT22;43379;48.160;14.036;2023-11-21T12:01:28;10.40;99.90
57552;DHT22;43379;48.160;14.036;2023-11-21T12:06:59;10.50;99.90
57552;DHT22;43379;48.160;14.036;2023-11-21T12:09:26;10.50;99.90
57552;DHT22;43379;48.160;14.036;2023-11-21T12:11:52;10.40;99.90
57552;DHT22;43379;48.160;14.036;2023-11-21T12:14:18;10.40;99.90
57552;DHT22;43379;48.160;14.036;2023-11-21T12:16:44;10.40;99.90
57552;DHT22;43379;48.160;14.036;2023-11-21T12:19:13;10.50;99.90
57552;DHT22;43379;48.160;14.036;2023-11-21T12:21:40;10.50;99.90
57552;DHT22;43379;48.160;14.036;2023-11-21T12:24:09;10.50;99.90
57552;DHT22;43379;48.160;14.036;2023-11-21T12:26:39;10.50;99.90
57552;DHT22;43379;48.160;14.036;2023-11-21T12:29:05;10.50;99.90
57552;DHT22;43379;48.160;14.036;2023-11-21T12:31:33;10.60;99.90
57552;DHT22;43379;48.160;14.036;2023-11-21T12:34:00;10.60;99.90
57552;DHT22;43379;48.160;14.036;2023-11-21T12:36:26;10.70;99.90
57552;DHT22;43379;48.160;14.036;2023-11-21T12:38:51;10.70;99.90
57552;DHT22;43379;48.160;14.036;2023-11-21T12:41:17;10.70;99.90
57552;DHT22;43379;48.160;14.036;2023-11-21T12:43:43;10.80;99.90
57552;DHT22;43379;48.160;14.036;2023-11-21T12:46:10;10.80;99.90
57552;DHT22;43379;48.160;14.036;2023-11-21T12:48:42;10.80;99.90
57552;DHT22;43379;48.160;14.036;2023-11-21T12:51:10;10.90;99.90
57552;DHT22;43379;48.160;14.036;2023-11-21T12:53:38;10.90;99.90
57552;DHT22;43379;48.160;14.036;2023-11-21T12:56:13;10.90;99.90
57552;DHT22;43379;48.160;14.036;2023-11-21T12:58:39;10.90;99.90
57552;DHT22;43379;48.160;14.036;2023-11-21T13:01:07;10.90;99.90
57552;DHT22;43379;48.160;14.036;2023-11-21T13:03:38;11.00;99.90
57552;DHT22;43379;48.160;14.036;2023-11-21T13:06:05;11.00;99.90
57552;DHT22;43379;48.160;14.036;2023-11-21T13:08:31;11.00;99.90
57552;DHT22;43379;48.160;14.036;2023-11-21T13:10:58;10.90;99.90
57552;DHT22;43379;48.160;14.036;2023-11-21T13:13:25;11.00;99.90
57552;DHT22;43379;48.160;14.036;2023-11-21T13:15:54;11.00;99.90
57552;DHT22;43379;48.160;14.036;2023-11-21T13:18:26;11.10;99.90
57552;DHT22;43379;48.160;14.036;2023-11-21T13:20:53;11.20;99.90
57552;DHT22;43379;48.160;14.036;2023-11-21T13:23:20;11.20;99.90
57552;DHT22;43379;48.160;14.036;2023-11-21T13:25:46;11.20;99.90
57552;DHT22;43379;48.160;14.036;2023-11-21T13:28:13;11.20;99.90
57552;DHT22;43379;48.160;14.036;2023-11-21T13:30:41;11.20;99.90
57552;DHT22;43379;48.160;14.036;2023-11-21T13:33:08;11.20;99.90
57552;DHT22;43379;48.160;14.036;2023-11-21T13:35:35;11.10;99.90
57552;DHT22;43379;48.160;14.036;2023-11-21T13:38:08;11.10;99.90
57552;DHT22;43379;48.160;14.036;2023-11-21T13:40:35;10.90;99.90
57552;DHT22;43379;48.160;14.036;2023-11-21T13:43:12;10.90;99.90
57552;DHT22;43379;48.160;14.036;2023-11-21T13:45:39;10.90;99.90
57552;DHT22;43379;48.160;14.036;2023-11-21T13:48:05;10.80;99.90
57552;DHT22;43379;48.160;14.036;2023-11-21T13:50:38;10.80;99.90
57552;DHT22;43379;48.160;14.036;2023-11-21T13:53:04;10.80;99.90
57552;DHT22;43379;48.160;14.036;2023-11-21T13:55:51;10.80;99.90
57552;DHT22;43379;48.160;14.036;2023-11-21T13:58:20;10.80;99.90
57552;DHT22;43379;48.160;14.036;2023-11-21T14:00:50;10.80;99.90
57552;DHT22;43379;48.160;14.036;2023-11-21T14:03:22;10.80;99.90
57552;DHT22;43379;48.160;14.036;2023-11-21T14:05:50;10.80;99.90
57552;DHT22;43379;48.160;14.036;2023-11-21T14:08:21;10.80;99.90
57552;DHT22;43379;48.160;14.036;2023-11-21T14:10:47;10.80;99.90
57552;DHT22;43379;48.160;14.036;2023-11-21T14:13:21;10.80;99.90
57552;DHT22;43379;48.160;14.036;2023-11-21T14:15:48;10.80;99.90
57552;DHT22;43379;48.160;14.036;2023-11-21T14:18:16;10.70;99.90
57552;DHT22;43379;48.160;14.036;2023-11-21T14:20:43;10.80;99.90
57552;DHT22;43379;48.160;14.036;2023-11-21T14:23:10;10.80;99.90
57552;DHT22;43379;48.160;14.036;2023-11-21T14:25:37;10.80;99.90
57552;DHT22;43379;48.160;14.036;2023-11-21T14:28:06;10.80;99.90
57552;DHT22;43379;48.160;14.036;2023-11-21T14:30:34;10.80;99.90
57552;DHT22;43379;48.160;14.036;2023-11-21T14:33:02;10.70;99.90
57552;DHT22;43379;48.160;14.036;2023-11-21T14:35:28;10.70;99.90
57552;DHT22;43379;48.160;14.036;2023-11-21T14:38:00;10.60;99.90
57552;DHT22;43379;48.160;14.036;2023-11-21T14:40:28;10.60;99.90
57552;DHT22;43379;48.160;14.036;2023-11-21T14:43:04;10.50;99.90
57552;DHT22;43379;48.160;14.036;2023-11-21T14:45:33;10.50;99.90
57552;DHT22;43379;48.160;14.036;2023-11-21T14:48:00;10.60;99.90
57552;DHT22;43379;48.160;14.036;2023-11-21T14:50:46;10.60;99.90
57552;DHT22;43379;48.160;14.036;2023-11-21T14:53:34;10.60;99.90
57552;DHT22;43379;48.160;14.036;2023-11-21T14:56:19;10.70;99.90
57552;DHT22;43379;48.160;14.036;2023-11-21T14:58:52;10.70;99.90
57552;DHT22;43379;48.160;14.036;2023-11-21T15:01:19;10.60;99.90
57552;DHT22;43379;48.160;14.036;2023-11-21T15:03:56;10.50;99.90
57552;DHT22;43379;48.160;14.036;2023-11-21T15:06:21;10.50;99.90
57552;DHT22;43379;48.160;14.036;2023-11-21T15:08:57;10.60;99.90
57552;DHT22;43379;48.160;14.036;2023-11-21T15:11:32;10.60;99.90
57552;DHT22;43379;48.160;14.036;2023-11-21T15:13:58;10.60;99.90
57552;DHT22;43379;48.160;14.036;2023-11-21T15:16:24;10.60;99.90
57552;DHT22;43379;48.160;14.036;2023-11-21T15:18:52;10.60;99.90
57552;DHT22;43379;48.160;14.036;2023-11-21T15:21:19;10.60;99.90
57552;DHT22;43379;48.160;14.036;2023-11-21T15:23:46;10.50;99.90
57552;DHT22;43379;48.160;14.036;2023-11-21T15:26:12;10.50;99.90
57552;DHT22;43379;48.160;14.036;2023-11-21T15:28:38;10.50;99.90
57552;DHT22;43379;48.160;14.036;2023-11-21T15:31:04;10.50;99.90
57552;DHT22;43379;48.160;14.036;2023-11-21T15:33:30;10.40;99.90
57552;DHT22;43379;48.160;14.036;2023-11-21T15:35:56;10.40;99.90
57552;DHT22;43379;48.160;14.036;2023-11-21T15:38:23;10.40;99.90
57552;DHT22;43379;48.160;14.036;2023-11-21T15:40:49;10.40;99.90
57552;DHT22;43379;48.160;14.036;2023-11-21T15:43:15;10.40;99.90